UAE8VR VTBS-OMDB
Flight info
| Callsign | UAE8VR |
|---|---|
| Flight time | N/A |
| Altitude | 32000 |
| Route | PASTO1E PASTO L301 POTAS/N0502F340 L301 RAGMA N571 VUSET A454 PASOV B540 KUPMA/N0453F240 B540 MIVEK P574 IMPED |
| Aircraft | B77W/H-SDE1E2E3FGHIJ2J3J4J5M1RWXY/LB1D1 |
Departure
| Time | N/A |
|---|---|
| Airport | Suvarnabhumi Airport (VTBS) |
Arrival
| Time | 2026-05-04 18:57 |
|---|---|
| Airport | Dubai International Airport (OMDB) |
| Time | Latitude | Longitude | Altitude | Speed | Heading |
|---|---|---|---|---|---|
| 2026-05-04 14:57 | 16.64208 | 87.55490 | 31882 ft | 512 kts | 283° |
| 2026-05-04 14:57 | 16.65918 | 87.48229 | 31892 ft | 512 kts | 283° |
| 2026-05-04 14:58 | 16.67614 | 87.41017 | 32129 ft | 511 kts | 283° |
| 2026-05-04 14:58 | 16.68458 | 87.37420 | 32265 ft | 510 kts | 283° |
| 2026-05-04 14:58 | 16.69017 | 87.35039 | 32331 ft | 510 kts | 283° |
| 2026-05-04 14:59 | 16.70145 | 87.30230 | 32480 ft | 510 kts | 282° |
| 2026-05-04 14:59 | 16.70986 | 87.26637 | 32640 ft | 509 kts | 282° |
| 2026-05-04 14:59 | 16.72659 | 87.19484 | 32954 ft | 506 kts | 282° |
| 2026-05-04 15:00 | 16.73481 | 87.15969 | 33127 ft | 505 kts | 282° |
| 2026-05-04 15:00 | 16.74325 | 87.12374 | 33330 ft | 503 kts | 282° |
| 2026-05-04 15:00 | 16.75154 | 87.08887 | 33542 ft | 501 kts | 282° |
| 2026-05-04 15:01 | 16.76834 | 87.01856 | 33813 ft | 498 kts | 282° |
| 2026-05-04 15:01 | 16.77670 | 86.98356 | 33877 ft | 496 kts | 282° |
| 2026-05-04 15:01 | 16.79330 | 86.91379 | 33882 ft | 494 kts | 282° |
| 2026-05-04 15:02 | 16.80980 | 86.84424 | 33876 ft | 493 kts | 282° |
| 2026-05-04 15:02 | 16.82623 | 86.77483 | 33877 ft | 492 kts | 282° |
| 2026-05-04 15:03 | 16.83996 | 86.71671 | 33878 ft | 492 kts | 282° |
| 2026-05-04 15:03 | 16.85634 | 86.64734 | 33878 ft | 493 kts | 282° |
| 2026-05-04 15:04 | 16.87261 | 86.57830 | 33873 ft | 493 kts | 282° |
| 2026-05-04 15:04 | 16.88898 | 86.50875 | 33876 ft | 494 kts | 282° |
| 2026-05-04 15:05 | 16.90533 | 86.43913 | 33873 ft | 494 kts | 282° |
| 2026-05-04 15:05 | 16.92166 | 86.36951 | 33874 ft | 493 kts | 282° |
| 2026-05-04 15:06 | 16.93797 | 86.29988 | 33874 ft | 493 kts | 282° |
| 2026-05-04 15:07 | 16.96234 | 86.19557 | 33874 ft | 493 kts | 282° |
| 2026-05-04 15:07 | 16.97855 | 86.12609 | 33875 ft | 491 kts | 282° |
| 2026-05-04 15:08 | 16.99467 | 86.05686 | 33868 ft | 490 kts | 282° |
| 2026-05-04 15:08 | 17.01071 | 85.98786 | 33883 ft | 488 kts | 282° |
| 2026-05-04 15:09 | 17.02668 | 85.91905 | 33870 ft | 487 kts | 282° |
| 2026-05-04 15:09 | 17.04258 | 85.85044 | 33870 ft | 485 kts | 282° |
| 2026-05-04 15:10 | 17.06634 | 85.74770 | 33874 ft | 485 kts | 282° |
| 2026-05-04 15:11 | 17.08993 | 85.64539 | 33872 ft | 485 kts | 282° |
| 2026-05-04 15:11 | 17.10573 | 85.57677 | 33872 ft | 486 kts | 282° |
| 2026-05-04 15:12 | 17.12154 | 85.50800 | 33872 ft | 487 kts | 281° |
| 2026-05-04 15:12 | 17.13734 | 85.43913 | 33872 ft | 487 kts | 281° |
| 2026-05-04 15:13 | 17.15315 | 85.37010 | 33867 ft | 489 kts | 281° |
| 2026-05-04 15:13 | 17.16901 | 85.30078 | 33876 ft | 491 kts | 281° |
| 2026-05-04 15:14 | 17.18540 | 85.23136 | 33872 ft | 493 kts | 282° |
| 2026-05-04 15:14 | 17.20212 | 85.16170 | 33870 ft | 494 kts | 282° |
| 2026-05-04 15:15 | 17.21879 | 85.09188 | 33866 ft | 495 kts | 282° |
| 2026-05-04 15:15 | 17.23538 | 85.02199 | 33869 ft | 495 kts | 282° |
| 2026-05-04 15:16 | 17.26021 | 84.91709 | 33861 ft | 495 kts | 282° |
| 2026-05-04 15:17 | 17.28492 | 84.81245 | 33862 ft | 493 kts | 282° |
| 2026-05-04 15:17 | 17.30952 | 84.70803 | 33864 ft | 492 kts | 282° |
| 2026-05-04 15:18 | 17.32585 | 84.63857 | 33865 ft | 491 kts | 282° |
| 2026-05-04 15:19 | 17.35033 | 84.53420 | 33858 ft | 492 kts | 282° |
| 2026-05-04 15:19 | 17.37536 | 84.42982 | 33856 ft | 493 kts | 282° |
| 2026-05-04 15:20 | 17.39249 | 84.36076 | 33855 ft | 494 kts | 282° |
| 2026-05-04 15:20 | 17.40967 | 84.29111 | 33852 ft | 494 kts | 282° |
| 2026-05-04 15:21 | 17.42674 | 84.22144 | 33860 ft | 494 kts | 282° |
| 2026-05-04 15:22 | 17.45223 | 84.11708 | 33849 ft | 492 kts | 282° |
| 2026-05-04 15:22 | 17.47761 | 84.01292 | 33845 ft | 491 kts | 282° |
| 2026-05-04 15:23 | 17.49449 | 83.94356 | 33850 ft | 491 kts | 282° |
| 2026-05-04 15:23 | 17.51160 | 83.87429 | 33842 ft | 492 kts | 283° |
| 2026-05-04 15:24 | 17.54703 | 83.73576 | 33834 ft | 492 kts | 283° |
| 2026-05-04 15:25 | 17.56464 | 83.66640 | 33835 ft | 493 kts | 283° |
| 2026-05-04 15:26 | 17.59098 | 83.56221 | 33828 ft | 493 kts | 283° |
| 2026-05-04 15:26 | 17.61731 | 83.45782 | 33824 ft | 494 kts | 283° |
| 2026-05-04 15:27 | 17.64363 | 83.35325 | 33808 ft | 495 kts | 283° |
| 2026-05-04 15:28 | 17.67017 | 83.24846 | 33803 ft | 496 kts | 285° |
| 2026-05-04 15:29 | 17.70299 | 83.14578 | 33800 ft | 498 kts | 287° |
| 2026-05-04 15:30 | 17.78124 | 82.90481 | 33841 ft | 499 kts | 287° |
| 2026-05-04 15:31 | 17.81448 | 82.80131 | 33865 ft | 499 kts | 287° |
| 2026-05-04 15:32 | 17.86976 | 82.62888 | 33871 ft | 498 kts | 287° |
| 2026-05-04 15:34 | 17.92482 | 82.45655 | 33882 ft | 498 kts | 287° |
| 2026-05-04 15:34 | 17.95775 | 82.35318 | 33874 ft | 497 kts | 287° |
| 2026-05-04 15:35 | 17.99037 | 82.25061 | 33868 ft | 495 kts | 287° |
| 2026-05-04 15:36 | 18.02295 | 82.14790 | 33867 ft | 493 kts | 286° |
| 2026-05-04 15:36 | 18.04461 | 82.07951 | 33844 ft | 493 kts | 287° |
| 2026-05-04 15:37 | 18.06626 | 82.01109 | 33845 ft | 493 kts | 286° |
| 2026-05-04 15:37 | 18.08824 | 81.94277 | 33824 ft | 494 kts | 287° |
| 2026-05-04 15:38 | 18.11075 | 81.87450 | 33826 ft | 495 kts | 287° |
| 2026-05-04 15:38 | 18.13325 | 81.80612 | 33815 ft | 495 kts | 287° |
| 2026-05-04 15:39 | 18.15565 | 81.73768 | 33804 ft | 495 kts | 287° |
| 2026-05-04 15:40 | 18.18920 | 81.63480 | 33797 ft | 496 kts | 287° |
| 2026-05-04 15:40 | 18.21137 | 81.56675 | 33796 ft | 496 kts | 287° |
| 2026-05-04 15:41 | 18.23366 | 81.49820 | 33795 ft | 495 kts | 287° |
| 2026-05-04 15:41 | 18.25594 | 81.42956 | 33811 ft | 495 kts | 287° |
| 2026-05-04 15:42 | 18.27814 | 81.36113 | 33815 ft | 494 kts | 287° |
| 2026-05-04 15:42 | 18.30030 | 81.29273 | 33806 ft | 494 kts | 287° |
| 2026-05-04 15:43 | 18.32247 | 81.22422 | 33808 ft | 494 kts | 287° |
| 2026-05-04 15:43 | 18.34453 | 81.15591 | 33801 ft | 493 kts | 287° |
| 2026-05-04 15:44 | 18.36660 | 81.08750 | 33805 ft | 493 kts | 287° |
| 2026-05-04 15:44 | 18.38863 | 81.01909 | 33805 ft | 493 kts | 287° |
| 2026-05-04 15:45 | 18.41059 | 80.95085 | 33808 ft | 493 kts | 287° |
| 2026-05-04 15:45 | 18.43258 | 80.88239 | 33809 ft | 493 kts | 286° |
| 2026-05-04 15:46 | 18.45449 | 80.81410 | 33786 ft | 493 kts | 286° |
| 2026-05-04 15:46 | 18.47643 | 80.74562 | 33799 ft | 493 kts | 286° |
| 2026-05-04 15:47 | 18.49829 | 80.67728 | 33805 ft | 493 kts | 286° |
| 2026-05-04 15:47 | 18.52018 | 80.60875 | 33798 ft | 493 kts | 286° |
| 2026-05-04 15:48 | 18.54170 | 80.54027 | 33783 ft | 493 kts | 285° |
| 2026-05-04 15:48 | 18.57259 | 80.43683 | 33793 ft | 493 kts | 285° |
| 2026-05-04 15:49 | 18.59311 | 80.36790 | 33781 ft | 494 kts | 285° |
| 2026-05-04 15:49 | 18.61378 | 80.29877 | 33765 ft | 494 kts | 285° |
| 2026-05-04 15:50 | 18.63447 | 80.22963 | 33784 ft | 494 kts | 285° |
| 2026-05-04 15:50 | 18.65509 | 80.16063 | 33787 ft | 494 kts | 285° |
| 2026-05-04 15:51 | 18.67222 | 80.10322 | 33769 ft | 494 kts | 285° |
| 2026-05-04 15:51 | 18.69284 | 80.03398 | 33769 ft | 494 kts | 285° |
| 2026-05-04 15:52 | 18.71674 | 79.95362 | 33783 ft | 494 kts | 285° |
| 2026-05-04 15:52 | 18.73397 | 79.89561 | 33773 ft | 494 kts | 285° |
| 2026-05-04 15:53 | 18.75437 | 79.82681 | 33777 ft | 495 kts | 285° |
| 2026-05-04 15:53 | 18.77501 | 79.75711 | 33782 ft | 495 kts | 285° |
| 2026-05-04 15:54 | 18.79537 | 79.68827 | 33794 ft | 495 kts | 285° |
| 2026-05-04 15:54 | 18.81596 | 79.61854 | 33797 ft | 495 kts | 285° |
| 2026-05-04 15:55 | 18.83626 | 79.54966 | 33804 ft | 494 kts | 285° |
| 2026-05-04 15:55 | 18.85662 | 79.48052 | 33784 ft | 493 kts | 285° |
| 2026-05-04 15:56 | 18.87695 | 79.41135 | 33787 ft | 492 kts | 285° |
| 2026-05-04 15:56 | 18.89718 | 79.34243 | 33783 ft | 492 kts | 285° |
| 2026-05-04 15:57 | 18.91740 | 79.27343 | 33792 ft | 491 kts | 285° |
| 2026-05-04 15:57 | 18.93759 | 79.20441 | 33790 ft | 491 kts | 285° |
| 2026-05-04 15:58 | 18.95771 | 79.13555 | 33786 ft | 491 kts | 285° |
| 2026-05-04 15:58 | 18.97781 | 79.06663 | 33781 ft | 492 kts | 285° |
| 2026-05-04 15:59 | 18.99795 | 78.99750 | 33785 ft | 492 kts | 285° |
| 2026-05-04 15:59 | 19.01806 | 78.92836 | 33780 ft | 492 kts | 285° |
| 2026-05-04 16:00 | 19.03810 | 78.85936 | 33781 ft | 491 kts | 285° |
| 2026-05-04 16:00 | 19.05814 | 78.79024 | 33774 ft | 491 kts | 285° |
| 2026-05-04 16:01 | 19.07812 | 78.72122 | 33773 ft | 492 kts | 285° |
| 2026-05-04 16:01 | 19.09812 | 78.65204 | 33765 ft | 492 kts | 285° |
| 2026-05-04 16:02 | 19.11806 | 78.58295 | 33780 ft | 492 kts | 285° |
| 2026-05-04 16:03 | 19.14798 | 78.47909 | 33771 ft | 492 kts | 285° |
| 2026-05-04 16:03 | 19.16787 | 78.40992 | 33771 ft | 492 kts | 285° |
| 2026-05-04 16:04 | 19.18773 | 78.34071 | 33770 ft | 492 kts | 285° |
| 2026-05-04 16:04 | 19.21735 | 78.23732 | 33769 ft | 491 kts | 285° |
| 2026-05-04 16:05 | 19.23713 | 78.16815 | 33770 ft | 491 kts | 285° |
| 2026-05-04 16:06 | 19.26386 | 78.06365 | 33774 ft | 490 kts | 282° |
| 2026-05-04 16:07 | 19.29518 | 77.92313 | 33773 ft | 491 kts | 282° |
| 2026-05-04 16:08 | 19.32751 | 77.78267 | 33779 ft | 491 kts | 283° |
| 2026-05-04 16:09 | 19.36783 | 77.60688 | 33779 ft | 492 kts | 282° |
| 2026-05-04 16:10 | 19.39995 | 77.46613 | 33779 ft | 491 kts | 282° |
| 2026-05-04 16:11 | 19.43188 | 77.32567 | 33779 ft | 490 kts | 282° |
| 2026-05-04 16:12 | 19.47931 | 77.11524 | 33780 ft | 489 kts | 282° |
| 2026-05-04 16:13 | 19.51059 | 76.97540 | 33784 ft | 489 kts | 282° |
| 2026-05-04 16:14 | 19.54190 | 76.83495 | 33797 ft | 489 kts | 282° |
| 2026-05-04 16:16 | 19.58167 | 76.65975 | 33798 ft | 488 kts | 283° |
| 2026-05-04 16:17 | 19.62127 | 76.48466 | 33804 ft | 488 kts | 282° |
| 2026-05-04 16:18 | 19.65275 | 76.34478 | 33813 ft | 487 kts | 282° |
| 2026-05-04 16:19 | 19.69184 | 76.17035 | 33824 ft | 486 kts | 282° |
| 2026-05-04 16:20 | 19.73075 | 75.99588 | 33822 ft | 486 kts | 282° |
| 2026-05-04 16:22 | 19.76953 | 75.82117 | 33837 ft | 487 kts | 282° |
| 2026-05-04 16:23 | 19.81589 | 75.61116 | 33856 ft | 487 kts | 282° |
| 2026-05-04 16:25 | 19.86198 | 75.40106 | 33849 ft | 488 kts | 282° |
| 2026-05-04 16:26 | 19.90789 | 75.15330 | 33866 ft | 489 kts | 281° |
| 2026-05-04 16:28 | 19.94061 | 74.97620 | 33868 ft | 489 kts | 281° |
| 2026-05-04 16:29 | 19.98622 | 74.72755 | 33874 ft | 490 kts | 281° |
| 2026-05-04 16:31 | 20.01864 | 74.54955 | 33880 ft | 491 kts | 281° |
| 2026-05-04 16:32 | 20.05725 | 74.33618 | 33879 ft | 491 kts | 281° |
| 2026-05-04 16:33 | 20.08291 | 74.19349 | 33894 ft | 491 kts | 281° |
| 2026-05-04 16:34 | 20.10211 | 74.08628 | 33888 ft | 492 kts | 281° |
| 2026-05-04 16:35 | 20.14027 | 73.87210 | 33882 ft | 491 kts | 281° |
| 2026-05-04 16:36 | 20.15927 | 73.76487 | 33893 ft | 492 kts | 281° |
| 2026-05-04 16:37 | 20.17822 | 73.65748 | 33890 ft | 492 kts | 281° |
| 2026-05-04 16:38 | 20.20338 | 73.51432 | 33899 ft | 492 kts | 281° |
| 2026-05-04 16:39 | 20.23462 | 73.33559 | 33865 ft | 492 kts | 281° |
| 2026-05-04 16:40 | 20.26015 | 73.19228 | 33861 ft | 493 kts | 282° |
| 2026-05-04 16:41 | 20.29196 | 73.02462 | 33848 ft | 495 kts | 282° |
| 2026-05-04 16:43 | 20.32534 | 72.84559 | 33833 ft | 494 kts | 282° |
| 2026-05-04 16:43 | 20.34530 | 72.73799 | 33826 ft | 493 kts | 282° |
| 2026-05-04 16:45 | 20.38499 | 72.52302 | 33812 ft | 492 kts | 282° |
| 2026-05-04 16:46 | 20.41778 | 72.34424 | 33814 ft | 492 kts | 282° |
| 2026-05-04 16:47 | 20.44387 | 72.20118 | 33815 ft | 492 kts | 282° |
| 2026-05-04 16:48 | 20.46986 | 72.05801 | 33821 ft | 492 kts | 282° |
| 2026-05-04 16:49 | 20.49570 | 71.91464 | 33818 ft | 493 kts | 282° |
| 2026-05-04 16:50 | 20.52136 | 71.77116 | 33812 ft | 492 kts | 282° |
| 2026-05-04 16:51 | 20.54053 | 71.66359 | 33810 ft | 492 kts | 282° |
| 2026-05-04 16:52 | 20.56594 | 71.52033 | 33807 ft | 491 kts | 282° |
| 2026-05-04 16:53 | 20.58494 | 71.41281 | 33808 ft | 492 kts | 282° |
| 2026-05-04 16:54 | 20.61009 | 71.26981 | 33817 ft | 492 kts | 282° |
| 2026-05-04 16:55 | 20.64782 | 71.05388 | 33813 ft | 493 kts | 281° |
| 2026-05-04 16:56 | 20.67907 | 70.87384 | 33808 ft | 494 kts | 281° |
| 2026-05-04 16:57 | 20.69776 | 70.76557 | 33832 ft | 494 kts | 281° |
| 2026-05-04 16:58 | 20.72255 | 70.62130 | 33815 ft | 493 kts | 281° |
| 2026-05-04 17:00 | 20.75934 | 70.40587 | 33813 ft | 492 kts | 281° |
| 2026-05-04 17:01 | 20.78986 | 70.22590 | 33812 ft | 493 kts | 281° |
| 2026-05-04 17:02 | 20.81418 | 70.08156 | 33813 ft | 494 kts | 281° |
| 2026-05-04 17:03 | 20.83240 | 69.97299 | 33811 ft | 495 kts | 281° |
| 2026-05-04 17:03 | 20.85057 | 69.86423 | 33807 ft | 495 kts | 281° |
| 2026-05-04 17:04 | 20.87470 | 69.71912 | 33807 ft | 496 kts | 281° |
| 2026-05-04 17:05 | 20.89874 | 69.57382 | 33807 ft | 496 kts | 281° |
| 2026-05-04 17:06 | 20.91670 | 69.46473 | 33801 ft | 497 kts | 281° |
| 2026-05-04 17:07 | 20.93257 | 69.36793 | 33806 ft | 497 kts | 281° |
| 2026-05-04 17:07 | 20.94648 | 69.28280 | 33803 ft | 497 kts | 281° |
| 2026-05-04 17:08 | 20.96429 | 69.17347 | 33795 ft | 497 kts | 281° |
| 2026-05-04 17:09 | 20.97988 | 69.10206 | 33808 ft | 496 kts | 288° |
| 2026-05-04 17:09 | 21.00594 | 69.03337 | 33811 ft | 495 kts | 295° |
| 2026-05-04 17:10 | 21.07692 | 68.86574 | 33802 ft | 496 kts | 294° |
| 2026-05-04 17:11 | 21.10499 | 68.79842 | 33806 ft | 495 kts | 294° |
| 2026-05-04 17:12 | 21.14699 | 68.69737 | 33796 ft | 494 kts | 294° |
| 2026-05-04 17:13 | 21.21667 | 68.52941 | 33793 ft | 492 kts | 294° |
| 2026-05-04 17:14 | 21.27217 | 68.39527 | 33792 ft | 492 kts | 294° |
| 2026-05-04 17:15 | 21.31374 | 68.29453 | 33788 ft | 492 kts | 294° |
| 2026-05-04 17:16 | 21.36902 | 68.16026 | 33781 ft | 492 kts | 294° |
| 2026-05-04 17:17 | 21.42412 | 68.02607 | 33789 ft | 491 kts | 294° |
| 2026-05-04 17:18 | 21.47905 | 67.89196 | 33787 ft | 491 kts | 294° |
| 2026-05-04 17:19 | 21.53385 | 67.75777 | 33792 ft | 491 kts | 294° |
| 2026-05-04 17:20 | 21.58851 | 67.62358 | 33786 ft | 490 kts | 294° |
| 2026-05-04 17:20 | 21.62932 | 67.52316 | 33779 ft | 488 kts | 294° |
| 2026-05-04 17:21 | 21.68335 | 67.38987 | 33783 ft | 487 kts | 294° |
| 2026-05-04 17:22 | 21.71039 | 67.32303 | 33784 ft | 488 kts | 294° |
| 2026-05-04 17:23 | 21.76441 | 67.18921 | 33778 ft | 488 kts | 293° |
| 2026-05-04 17:24 | 21.80487 | 67.08876 | 33779 ft | 488 kts | 294° |
| 2026-05-04 17:25 | 21.85866 | 66.95488 | 33781 ft | 487 kts | 293° |
| 2026-05-04 17:26 | 21.91229 | 66.82101 | 33773 ft | 487 kts | 293° |
| 2026-05-04 17:27 | 21.97915 | 66.65361 | 33778 ft | 487 kts | 293° |
| 2026-05-04 17:28 | 22.03234 | 66.52002 | 33772 ft | 487 kts | 293° |
| 2026-05-04 17:29 | 22.11219 | 66.31887 | 33775 ft | 486 kts | 293° |
| 2026-05-04 17:31 | 22.17407 | 66.16238 | 33778 ft | 487 kts | 293° |
| 2026-05-04 17:32 | 22.24031 | 65.99428 | 33779 ft | 487 kts | 293° |
| 2026-05-04 17:33 | 22.29308 | 65.85995 | 33768 ft | 486 kts | 293° |
| 2026-05-04 17:34 | 22.34572 | 65.72556 | 33772 ft | 486 kts | 293° |
| 2026-05-04 17:35 | 22.41137 | 65.55741 | 33777 ft | 486 kts | 292° |
| 2026-05-04 17:36 | 22.43760 | 65.49007 | 33777 ft | 486 kts | 292° |
| 2026-05-04 17:36 | 22.46382 | 65.42264 | 33777 ft | 486 kts | 292° |
| 2026-05-04 17:37 | 22.48995 | 65.35535 | 33771 ft | 486 kts | 292° |
| 2026-05-04 17:37 | 22.51610 | 65.28791 | 33772 ft | 486 kts | 292° |
| 2026-05-04 17:38 | 22.54215 | 65.22063 | 33775 ft | 486 kts | 292° |
| 2026-05-04 17:38 | 22.56824 | 65.15315 | 33777 ft | 486 kts | 292° |
| 2026-05-04 17:39 | 22.60731 | 65.05191 | 33780 ft | 486 kts | 292° |
| 2026-05-04 17:39 | 22.63316 | 64.98482 | 33786 ft | 486 kts | 292° |
| 2026-05-04 17:40 | 22.65931 | 64.91685 | 33776 ft | 486 kts | 292° |
| 2026-05-04 17:40 | 22.68510 | 64.84969 | 33774 ft | 486 kts | 292° |
| 2026-05-04 17:41 | 22.71119 | 64.78166 | 33772 ft | 486 kts | 292° |
| 2026-05-04 17:41 | 22.73693 | 64.71445 | 33773 ft | 486 kts | 292° |
| 2026-05-04 17:42 | 22.76297 | 64.64637 | 33776 ft | 486 kts | 292° |
| 2026-05-04 17:42 | 22.78865 | 64.57912 | 33773 ft | 486 kts | 292° |
| 2026-05-04 17:43 | 22.81463 | 64.51097 | 33772 ft | 486 kts | 292° |
| 2026-05-04 17:43 | 22.84025 | 64.44367 | 33782 ft | 486 kts | 292° |
| 2026-05-04 17:44 | 22.86596 | 64.37603 | 33776 ft | 486 kts | 292° |
| 2026-05-04 17:44 | 22.89169 | 64.30825 | 33765 ft | 485 kts | 292° |
| 2026-05-04 17:45 | 22.91729 | 64.24068 | 33772 ft | 485 kts | 292° |
| 2026-05-04 17:45 | 22.94292 | 64.17297 | 33775 ft | 484 kts | 292° |
| 2026-05-04 17:46 | 22.96844 | 64.10543 | 33773 ft | 484 kts | 292° |
| 2026-05-04 17:46 | 22.99399 | 64.03770 | 33763 ft | 484 kts | 292° |
| 2026-05-04 17:47 | 23.01945 | 63.97010 | 33762 ft | 485 kts | 292° |
| 2026-05-04 17:47 | 23.04468 | 63.90209 | 33768 ft | 485 kts | 289° |
| 2026-05-04 17:48 | 23.06199 | 63.83146 | 33776 ft | 486 kts | 281° |
| 2026-05-04 17:48 | 23.07031 | 63.75847 | 33775 ft | 487 kts | 277° |
| 2026-05-04 17:49 | 23.07746 | 63.68547 | 33767 ft | 487 kts | 277° |
| 2026-05-04 17:49 | 23.08481 | 63.61219 | 33765 ft | 488 kts | 277° |
| 2026-05-04 17:50 | 23.09230 | 63.53912 | 33771 ft | 488 kts | 277° |
| 2026-05-04 17:50 | 23.09984 | 63.46578 | 33770 ft | 488 kts | 277° |
| 2026-05-04 17:51 | 23.10734 | 63.39244 | 33766 ft | 488 kts | 277° |
| 2026-05-04 17:51 | 23.11478 | 63.31928 | 33767 ft | 488 kts | 277° |
| 2026-05-04 17:52 | 23.12220 | 63.24593 | 33771 ft | 488 kts | 277° |
| 2026-05-04 17:52 | 23.12957 | 63.17277 | 33767 ft | 488 kts | 277° |
| 2026-05-04 17:53 | 23.13687 | 63.09997 | 33760 ft | 488 kts | 277° |
| 2026-05-04 17:53 | 23.14416 | 63.02682 | 33765 ft | 488 kts | 277° |
| 2026-05-04 17:54 | 23.15145 | 62.95347 | 33769 ft | 488 kts | 277° |
| 2026-05-04 17:54 | 23.15869 | 62.88013 | 33760 ft | 487 kts | 277° |
| 2026-05-04 17:55 | 23.16588 | 62.80701 | 33756 ft | 487 kts | 277° |
| 2026-05-04 17:55 | 23.17305 | 62.73376 | 33760 ft | 487 kts | 277° |
| 2026-05-04 17:56 | 23.18016 | 62.66076 | 33764 ft | 487 kts | 277° |
| 2026-05-04 17:56 | 23.18726 | 62.58755 | 33759 ft | 486 kts | 277° |
| 2026-05-04 17:57 | 23.19431 | 62.51445 | 33756 ft | 486 kts | 277° |
| 2026-05-04 17:57 | 23.20132 | 62.44140 | 33763 ft | 486 kts | 277° |
| 2026-05-04 17:58 | 23.20831 | 62.36830 | 33757 ft | 486 kts | 277° |
| 2026-05-04 17:58 | 23.21526 | 62.29515 | 33757 ft | 486 kts | 276° |
| 2026-05-04 17:59 | 23.22213 | 62.22249 | 33757 ft | 487 kts | 276° |
| 2026-05-04 18:00 | 23.23245 | 62.11267 | 33758 ft | 487 kts | 276° |
| 2026-05-04 18:00 | 23.23929 | 62.03941 | 33759 ft | 487 kts | 276° |
| 2026-05-04 18:01 | 23.24610 | 61.96615 | 33759 ft | 487 kts | 276° |
| 2026-05-04 18:01 | 23.25287 | 61.89287 | 33758 ft | 487 kts | 276° |
| 2026-05-04 18:02 | 23.26296 | 61.78305 | 33755 ft | 486 kts | 276° |
| 2026-05-04 18:02 | 23.26963 | 61.70995 | 33751 ft | 486 kts | 276° |
| 2026-05-04 18:03 | 23.27626 | 61.63689 | 33748 ft | 485 kts | 276° |
| 2026-05-04 18:03 | 23.28285 | 61.56390 | 33747 ft | 485 kts | 276° |
| 2026-05-04 18:04 | 23.28942 | 61.49087 | 33745 ft | 485 kts | 276° |
| 2026-05-04 18:05 | 23.29914 | 61.38193 | 33746 ft | 485 kts | 276° |
| 2026-05-04 18:05 | 23.30562 | 61.30888 | 33739 ft | 485 kts | 276° |
| 2026-05-04 18:06 | 23.31527 | 61.19930 | 33748 ft | 485 kts | 276° |
| 2026-05-04 18:06 | 23.32291 | 61.12632 | 33746 ft | 485 kts | 278° |
| 2026-05-04 18:07 | 23.33259 | 61.05364 | 33746 ft | 486 kts | 279° |
| 2026-05-04 18:07 | 23.34212 | 60.98085 | 33758 ft | 486 kts | 278° |
| 2026-05-04 18:08 | 23.35127 | 60.90793 | 33745 ft | 486 kts | 278° |
| 2026-05-04 18:08 | 23.36030 | 60.83499 | 33748 ft | 486 kts | 278° |
| 2026-05-04 18:09 | 23.37839 | 60.68910 | 33743 ft | 486 kts | 279° |
| 2026-05-04 18:10 | 23.39395 | 60.61756 | 33752 ft | 486 kts | 288° |
| 2026-05-04 18:10 | 23.41848 | 60.54903 | 33755 ft | 486 kts | 291° |
| 2026-05-04 18:11 | 23.44392 | 60.48080 | 33750 ft | 486 kts | 291° |
| 2026-05-04 18:11 | 23.46912 | 60.41241 | 33744 ft | 487 kts | 291° |
| 2026-05-04 18:12 | 23.49414 | 60.34388 | 33756 ft | 487 kts | 291° |
| 2026-05-04 18:12 | 23.51891 | 60.27580 | 33747 ft | 487 kts | 291° |
| 2026-05-04 18:13 | 23.54380 | 60.20727 | 33743 ft | 486 kts | 291° |
| 2026-05-04 18:14 | 23.58107 | 60.10451 | 33748 ft | 486 kts | 291° |
| 2026-05-04 18:14 | 23.60586 | 60.03598 | 33747 ft | 486 kts | 291° |
| 2026-05-04 18:15 | 23.65533 | 59.89885 | 33744 ft | 486 kts | 291° |
| 2026-05-04 18:16 | 23.68002 | 59.83027 | 33747 ft | 486 kts | 290° |
| 2026-05-04 18:16 | 23.70469 | 59.76164 | 33744 ft | 486 kts | 290° |
| 2026-05-04 18:17 | 23.74162 | 59.65864 | 33743 ft | 486 kts | 290° |
| 2026-05-04 18:18 | 23.77436 | 59.56717 | 33744 ft | 486 kts | 290° |
| 2026-05-04 18:18 | 23.79891 | 59.49841 | 33746 ft | 486 kts | 290° |
| 2026-05-04 18:19 | 23.83570 | 59.39522 | 33740 ft | 486 kts | 290° |
| 2026-05-04 18:19 | 23.86017 | 59.32640 | 33747 ft | 486 kts | 290° |
| 2026-05-04 18:20 | 23.88462 | 59.25757 | 33743 ft | 486 kts | 290° |
| 2026-05-04 18:20 | 23.90902 | 59.18875 | 33746 ft | 485 kts | 290° |
| 2026-05-04 18:21 | 23.93338 | 59.11995 | 33737 ft | 485 kts | 290° |
| 2026-05-04 18:21 | 23.95769 | 59.05116 | 33743 ft | 485 kts | 290° |
| 2026-05-04 18:22 | 23.98198 | 58.98230 | 33736 ft | 485 kts | 290° |
| 2026-05-04 18:22 | 24.00624 | 58.91343 | 33769 ft | 486 kts | 290° |
| 2026-05-04 18:23 | 24.03048 | 58.84449 | 33751 ft | 485 kts | 290° |
| 2026-05-04 18:23 | 24.05467 | 58.77562 | 33742 ft | 484 kts | 290° |
| 2026-05-04 18:24 | 24.07876 | 58.70687 | 33738 ft | 483 kts | 290° |
| 2026-05-04 18:24 | 24.10280 | 58.63819 | 33738 ft | 483 kts | 290° |
| 2026-05-04 18:25 | 24.12662 | 58.57001 | 33735 ft | 483 kts | 290° |
| 2026-05-04 18:25 | 24.15072 | 58.50091 | 33748 ft | 483 kts | 290° |
| 2026-05-04 18:26 | 24.17448 | 58.43266 | 33756 ft | 483 kts | 290° |
| 2026-05-04 18:26 | 24.19836 | 58.36395 | 33746 ft | 482 kts | 290° |
| 2026-05-04 18:27 | 24.22218 | 58.29533 | 33741 ft | 482 kts | 290° |
| 2026-05-04 18:27 | 24.24595 | 58.22672 | 33741 ft | 481 kts | 290° |
| 2026-05-04 18:28 | 24.26969 | 58.15810 | 33740 ft | 481 kts | 290° |
| 2026-05-04 18:28 | 24.29337 | 58.08951 | 33747 ft | 481 kts | 290° |
| 2026-05-04 18:29 | 24.31704 | 58.02085 | 33750 ft | 482 kts | 290° |
| 2026-05-04 18:29 | 24.34070 | 57.95211 | 33753 ft | 482 kts | 290° |
| 2026-05-04 18:30 | 24.37608 | 57.84909 | 33751 ft | 481 kts | 290° |
| 2026-05-04 18:30 | 24.38775 | 57.81507 | 33726 ft | 470 kts | 290° |
| 2026-05-04 18:31 | 24.39907 | 57.78203 | 33739 ft | 458 kts | 290° |
| 2026-05-04 18:31 | 24.42139 | 57.71680 | 33757 ft | 456 kts | 290° |
| 2026-05-04 18:32 | 24.44364 | 57.65165 | 33742 ft | 456 kts | 290° |
| 2026-05-04 18:32 | 24.46584 | 57.58656 | 33752 ft | 455 kts | 290° |
| 2026-05-04 18:33 | 24.48800 | 57.52146 | 33747 ft | 455 kts | 290° |
| 2026-05-04 18:33 | 24.51013 | 57.45637 | 33747 ft | 455 kts | 290° |
| 2026-05-04 18:34 | 24.53210 | 57.39163 | 33760 ft | 456 kts | 290° |
| 2026-05-04 18:34 | 24.54317 | 57.35900 | 33613 ft | 458 kts | 290° |
| 2026-05-04 18:34 | 24.55434 | 57.32602 | 33061 ft | 461 kts | 290° |
| 2026-05-04 18:34 | 24.56545 | 57.29319 | 32493 ft | 456 kts | 290° |
| 2026-05-04 18:35 | 24.57645 | 57.26068 | 31965 ft | 451 kts | 290° |
| 2026-05-04 18:35 | 24.58731 | 57.22854 | 31438 ft | 447 kts | 290° |
| 2026-05-04 18:35 | 24.59806 | 57.19670 | 30921 ft | 443 kts | 290° |
| 2026-05-04 18:35 | 24.60873 | 57.16508 | 30418 ft | 439 kts | 290° |
| 2026-05-04 18:36 | 24.61927 | 57.13379 | 29906 ft | 435 kts | 290° |
| 2026-05-04 18:36 | 24.62974 | 57.10274 | 29343 ft | 432 kts | 290° |
| 2026-05-04 18:36 | 24.64011 | 57.07193 | 28757 ft | 428 kts | 289° |
| 2026-05-04 18:36 | 24.65041 | 57.04133 | 28201 ft | 425 kts | 289° |
| 2026-05-04 18:37 | 24.66060 | 57.01099 | 27639 ft | 421 kts | 289° |
| 2026-05-04 18:37 | 24.67070 | 56.98091 | 27094 ft | 419 kts | 289° |
| 2026-05-04 18:37 | 24.68074 | 56.95097 | 26554 ft | 416 kts | 289° |
| 2026-05-04 18:37 | 24.69071 | 56.92123 | 26035 ft | 413 kts | 289° |
| 2026-05-04 18:38 | 24.70062 | 56.89166 | 25525 ft | 411 kts | 289° |
| 2026-05-04 18:38 | 24.71046 | 56.86225 | 25016 ft | 409 kts | 289° |
| 2026-05-04 18:38 | 24.72026 | 56.83297 | 24513 ft | 407 kts | 289° |
| 2026-05-04 18:38 | 24.73000 | 56.80384 | 24025 ft | 405 kts | 289° |
| 2026-05-04 18:39 | 24.73969 | 56.77482 | 23547 ft | 404 kts | 289° |
| 2026-05-04 18:39 | 24.74935 | 56.74588 | 23017 ft | 402 kts | 289° |
| 2026-05-04 18:39 | 24.75897 | 56.71705 | 22459 ft | 401 kts | 289° |
| 2026-05-04 18:39 | 24.76854 | 56.68833 | 21896 ft | 399 kts | 290° |
| 2026-05-04 18:40 | 24.77806 | 56.65973 | 21355 ft | 398 kts | 290° |
| 2026-05-04 18:40 | 24.78756 | 56.63120 | 20817 ft | 396 kts | 290° |
| 2026-05-04 18:40 | 24.79702 | 56.60274 | 20305 ft | 395 kts | 290° |
| 2026-05-04 18:40 | 24.80643 | 56.57442 | 19794 ft | 394 kts | 290° |
| 2026-05-04 18:41 | 24.81580 | 56.54623 | 19276 ft | 388 kts | 290° |
| 2026-05-04 18:41 | 24.82488 | 56.51884 | 18749 ft | 375 kts | 290° |
| 2026-05-04 18:41 | 24.83366 | 56.49236 | 18280 ft | 361 kts | 291° |
| 2026-05-04 18:41 | 24.84210 | 56.46689 | 17866 ft | 348 kts | 291° |
| 2026-05-04 18:42 | 24.85023 | 56.44232 | 17402 ft | 335 kts | 291° |
| 2026-05-04 18:42 | 24.85812 | 56.41849 | 16996 ft | 330 kts | 291° |
| 2026-05-04 18:42 | 24.86595 | 56.39483 | 16611 ft | 328 kts | 291° |
| 2026-05-04 18:42 | 24.87375 | 56.37128 | 16217 ft | 327 kts | 291° |
| 2026-05-04 18:43 | 24.88152 | 56.34784 | 15845 ft | 325 kts | 291° |
| 2026-05-04 18:43 | 24.88933 | 56.32452 | 15448 ft | 324 kts | 291° |
| 2026-05-04 18:43 | 24.89714 | 56.30125 | 15073 ft | 323 kts | 291° |
| 2026-05-04 18:43 | 24.90491 | 56.27810 | 14698 ft | 322 kts | 291° |
| 2026-05-04 18:44 | 24.91266 | 56.25500 | 14341 ft | 321 kts | 291° |
| 2026-05-04 18:44 | 24.91777 | 56.23974 | 14113 ft | 321 kts | 291° |
| 2026-05-04 18:44 | 24.92809 | 56.20892 | 13632 ft | 320 kts | 291° |
| 2026-05-04 18:44 | 24.93566 | 56.18627 | 13245 ft | 320 kts | 291° |
| 2026-05-04 18:45 | 24.94332 | 56.16332 | 12847 ft | 319 kts | 291° |
| 2026-05-04 18:45 | 24.95096 | 56.14040 | 12446 ft | 318 kts | 291° |
| 2026-05-04 18:45 | 24.95853 | 56.11767 | 12073 ft | 312 kts | 291° |
| 2026-05-04 18:45 | 24.96589 | 56.09558 | 11701 ft | 303 kts | 291° |
| 2026-05-04 18:46 | 24.97304 | 56.07410 | 11323 ft | 294 kts | 291° |
| 2026-05-04 18:46 | 24.97998 | 56.05325 | 10969 ft | 287 kts | 291° |
| 2026-05-04 18:46 | 24.98685 | 56.03265 | 10669 ft | 285 kts | 292° |
| 2026-05-04 18:46 | 24.99367 | 56.01216 | 10370 ft | 284 kts | 292° |
| 2026-05-04 18:47 | 25.00044 | 55.99178 | 10094 ft | 284 kts | 292° |
| 2026-05-04 18:47 | 25.00734 | 55.97103 | 10077 ft | 290 kts | 291° |
| 2026-05-04 18:47 | 25.01434 | 55.94999 | 9802 ft | 292 kts | 291° |
| 2026-05-04 18:47 | 25.02128 | 55.92907 | 9275 ft | 290 kts | 292° |
| 2026-05-04 18:48 | 25.02813 | 55.90840 | 8831 ft | 283 kts | 292° |
| 2026-05-04 18:48 | 25.03478 | 55.88831 | 8451 ft | 277 kts | 292° |
| 2026-05-04 18:48 | 25.04134 | 55.86849 | 8208 ft | 273 kts | 292° |
| 2026-05-04 18:48 | 25.04780 | 55.84900 | 7942 ft | 269 kts | 292° |
| 2026-05-04 18:49 | 25.05421 | 55.82963 | 7611 ft | 269 kts | 292° |
| 2026-05-04 18:49 | 25.06061 | 55.81030 | 7306 ft | 268 kts | 292° |
| 2026-05-04 18:49 | 25.06699 | 55.79102 | 6989 ft | 267 kts | 291° |
| 2026-05-04 18:49 | 25.07333 | 55.77183 | 6741 ft | 264 kts | 292° |
| 2026-05-04 18:50 | 25.07956 | 55.75294 | 6485 ft | 261 kts | 292° |
| 2026-05-04 18:50 | 25.08576 | 55.73419 | 6177 ft | 261 kts | 292° |
| 2026-05-04 18:50 | 25.09198 | 55.71535 | 5763 ft | 260 kts | 292° |
| 2026-05-04 18:50 | 25.09813 | 55.69673 | 5450 ft | 258 kts | 292° |
| 2026-05-04 18:51 | 25.10322 | 55.67813 | 5124 ft | 256 kts | 281° |
| 2026-05-04 18:51 | 25.10463 | 55.65868 | 4842 ft | 254 kts | 273° |
| 2026-05-04 18:51 | 25.10531 | 55.63940 | 4539 ft | 247 kts | 282° |
| 2026-05-04 18:51 | 25.11113 | 55.62196 | 4235 ft | 240 kts | 300° |
| 2026-05-04 18:52 | 25.11922 | 55.60614 | 4008 ft | 233 kts | 301° |
| 2026-05-04 18:52 | 25.12741 | 55.59095 | 3762 ft | 229 kts | 302° |
| 2026-05-04 18:52 | 25.13566 | 55.57601 | 3457 ft | 226 kts | 302° |
| 2026-05-04 18:52 | 25.14377 | 55.56141 | 3234 ft | 219 kts | 302° |
| 2026-05-04 18:53 | 25.15148 | 55.54750 | 3005 ft | 203 kts | 302° |
| 2026-05-04 18:53 | 25.15851 | 55.53479 | 2760 ft | 186 kts | 302° |
| 2026-05-04 18:53 | 25.16502 | 55.52307 | 2546 ft | 177 kts | 302° |
| 2026-05-04 18:53 | 25.17129 | 55.51175 | 2321 ft | 167 kts | 302° |
| 2026-05-04 18:54 | 25.17710 | 55.50124 | 2151 ft | 157 kts | 302° |
| 2026-05-04 18:54 | 25.18286 | 55.49085 | 1949 ft | 160 kts | 302° |
| 2026-05-04 18:54 | 25.18863 | 55.48041 | 1739 ft | 159 kts | 302° |
| 2026-05-04 18:54 | 25.19432 | 55.47004 | 1530 ft | 158 kts | 302° |
| 2026-05-04 18:55 | 25.20001 | 55.45971 | 1352 ft | 158 kts | 302° |
| 2026-05-04 18:55 | 25.21134 | 55.43890 | 923 ft | 159 kts | 301° |
| 2026-05-04 18:55 | 25.21718 | 55.42847 | 736 ft | 161 kts | 301° |
| 2026-05-04 18:56 | 25.22311 | 55.41787 | 545 ft | 162 kts | 301° |
| 2026-05-04 18:56 | 25.22899 | 55.40728 | 321 ft | 162 kts | 300° |
| 2026-05-04 18:56 | 25.23485 | 55.39674 | 97 ft | 161 kts | 300° |
| 2026-05-04 18:56 | 25.24051 | 55.38653 | 29 ft | 144 kts | 301° |
| 2026-05-04 18:57 | 25.24459 | 55.37920 | 29 ft | 76 kts | 301° |
| 2026-05-04 18:57 | 25.24672 | 55.37537 | 27 ft | 42 kts | 301° |
| 2026-05-04 18:57 | 25.24772 | 55.37306 | 29 ft | 27 kts | 278° |
| 2026-05-04 18:57 | 25.24785 | 55.37117 | 28 ft | 19 kts | 272° |
| 2026-05-04 18:58 | 25.24789 | 55.37001 | 27 ft | 10 kts | 270° |
| 2026-05-04 18:58 | 25.24747 | 55.36943 | 26 ft | 10 kts | 210° |
| 2026-05-04 18:58 | 25.24686 | 55.36904 | 30 ft | 10 kts | 210° |
| 2026-05-04 18:58 | 25.24625 | 55.36864 | 29 ft | 10 kts | 211° |
| 2026-05-04 18:59 | 25.24565 | 55.36824 | 29 ft | 10 kts | 212° |
| 2026-05-04 18:59 | 25.24505 | 55.36783 | 29 ft | 10 kts | 212° |
| 2026-05-04 18:59 | 25.24447 | 55.36742 | 31 ft | 8 kts | 213° |
| 2026-05-04 18:59 | 25.24413 | 55.36726 | 28 ft | 3 kts | 178° |
| 2026-05-04 19:00 | 25.24400 | 55.36738 | 26 ft | 2 kts | 125° |
| 2026-05-04 19:00 | 25.24400 | 55.36756 | 27 ft | 2 kts | 76° |
| 2026-05-04 19:00 | 25.24405 | 55.36774 | 30 ft | 2 kts | 74° |
| 2026-05-04 19:00 | 25.24409 | 55.36791 | 30 ft | 2 kts | 75° |
| 2026-05-04 19:01 | 25.24413 | 55.36809 | 29 ft | 2 kts | 76° |
| 2026-05-04 19:01 | 25.24417 | 55.36827 | 29 ft | 2 kts | 76° |
| 2026-05-04 19:01 | 25.24421 | 55.36845 | 29 ft | 2 kts | 76° |
| 2026-05-04 19:01 | 25.24424 | 55.36860 | 29 ft | 0 kts | 77° |
| 2026-05-04 19:21 | 25.24424 | 55.36859 | 26 ft | 0 kts | 77° |